createdAt,value
2024-04-23T00:01:59.981Z,19.58
2024-04-23T00:04:28.837Z,17.70
2024-04-23T00:06:56.748Z,14.55
2024-04-23T00:09:24.654Z,16.77
2024-04-23T00:11:52.436Z,14.85
2024-04-23T00:14:20.491Z,14.77
2024-04-23T00:17:17.265Z,17.60
2024-04-23T00:19:44.976Z,14.80
2024-04-23T00:22:12.290Z,15.52
2024-04-23T00:24:40.007Z,16.98
2024-04-23T00:27:07.384Z,15.55
2024-04-23T00:29:35.119Z,15.68
2024-04-23T00:32:02.675Z,13.50
2024-04-23T00:34:30.618Z,15.18
2024-04-23T00:36:59.817Z,20.02
2024-04-23T00:39:28.175Z,24.42
2024-04-23T00:41:55.659Z,25.80
2024-04-23T00:44:23.442Z,25.67
2024-04-23T00:46:52.005Z,21.73
2024-04-23T00:49:20.706Z,20.63
2024-04-23T00:51:51.933Z,22.13
2024-04-23T00:54:22.116Z,22.63
2024-04-23T00:56:50.380Z,23.17
2024-04-23T00:59:18.818Z,24.65
2024-04-23T01:01:48.143Z,26.30
2024-04-23T01:04:16.032Z,25.10
2024-04-23T01:06:43.746Z,27.63
2024-04-23T01:09:11.513Z,30.00
2024-04-23T01:11:38.949Z,28.33
2024-04-23T01:14:06.918Z,23.45
2024-04-23T01:16:40.779Z,23.45
2024-04-23T01:19:16.735Z,25.02
2024-04-23T01:22:12.798Z,20.98
2024-04-23T01:24:51.604Z,26.73
2024-04-23T01:27:20.277Z,20.77
2024-04-23T01:29:49.274Z,23.23
2024-04-23T01:32:20.795Z,21.33
2024-04-23T01:34:49.467Z,21.05
2024-04-23T01:37:18.490Z,21.13
2024-04-23T01:39:46.846Z,22.33
2024-04-23T01:42:14.976Z,19.25
2024-04-23T01:44:43.495Z,23.73
2024-04-23T01:47:10.989Z,22.90
2024-04-23T01:49:39.352Z,26.98
2024-04-23T01:52:07.104Z,25.20
2024-04-23T01:54:35.732Z,18.88
2024-04-23T01:57:06.461Z,21.20
2024-04-23T01:59:36.703Z,20.58
2024-04-23T02:02:04.466Z,19.20
2024-04-23T02:04:32.704Z,17.13
2024-04-23T02:07:00.091Z,18.73
2024-04-23T02:09:28.153Z,24.05
2024-04-23T02:11:56.676Z,19.67
2024-04-23T02:14:24.994Z,21.98
2024-04-23T02:16:52.513Z,30.35
2024-04-23T02:19:20.363Z,25.27
2024-04-23T02:21:47.825Z,22.25
2024-04-23T02:24:15.576Z,22.98
2024-04-23T02:26:43.057Z,20.43
2024-04-23T02:29:10.967Z,26.00
2024-04-23T02:31:38.558Z,27.15
2024-04-23T02:34:06.473Z,28.80
2024-04-23T02:36:33.864Z,28.60
2024-04-23T02:39:01.716Z,31.02
2024-04-23T02:41:29.282Z,37.17
2024-04-23T02:43:57.219Z,35.42
2024-04-23T02:46:24.882Z,38.78
2024-04-23T02:48:52.711Z,41.88
2024-04-23T02:51:20.048Z,39.38
2024-04-23T02:53:47.891Z,37.27
2024-04-23T02:56:15.216Z,42.47
2024-04-23T02:58:42.994Z,41.53
2024-04-23T03:01:10.489Z,43.83
2024-04-23T03:03:38.292Z,41.80
2024-04-23T03:06:05.889Z,44.63
2024-04-23T03:08:36.418Z,46.33
2024-04-23T03:11:04.511Z,43.60
2024-04-23T03:13:32.353Z,33.03
2024-04-23T03:15:59.829Z,37.17
2024-04-23T03:18:27.617Z,37.25
2024-04-23T03:20:55.044Z,37.22
2024-04-23T03:23:22.767Z,32.30
2024-04-23T03:25:50.157Z,38.28
2024-04-23T03:28:18.054Z,35.88
2024-04-23T03:30:45.396Z,31.77
2024-04-23T03:33:13.258Z,29.83
2024-04-23T03:35:40.681Z,44.85
2024-04-23T03:38:08.412Z,43.38
2024-04-23T03:40:35.843Z,43.57
2024-04-23T03:43:03.609Z,44.53
2024-04-23T03:45:31.002Z,55.05
2024-04-23T03:47:58.884Z,47.90
2024-04-23T03:50:28.009Z,60.88
2024-04-23T03:52:55.959Z,53.10
2024-04-23T03:55:23.334Z,50.03
2024-04-23T03:57:51.169Z,54.53
2024-04-23T04:00:18.764Z,57.53
2024-04-23T04:03:04.971Z,49.17
2024-04-23T04:05:51.128Z,48.28
2024-04-23T04:08:19.103Z,59.65
2024-04-23T04:10:46.583Z,59.03
2024-04-23T04:13:21.431Z,53.45
2024-04-23T04:15:51.928Z,56.47
2024-04-23T04:18:20.411Z,47.70
2024-04-23T04:20:48.048Z,46.63
2024-04-23T04:23:15.834Z,53.67
2024-04-23T04:25:43.431Z,47.25
2024-04-23T04:28:11.275Z,50.63
2024-04-23T04:30:38.663Z,48.40
2024-04-23T04:33:06.574Z,48.13
2024-04-23T04:35:33.995Z,39.53
2024-04-23T04:38:01.866Z,41.83
2024-04-23T04:40:29.634Z,31.92
2024-04-23T04:42:57.786Z,30.35
2024-04-23T04:45:25.211Z,41.13
2024-04-23T04:47:53.177Z,42.20
2024-04-23T04:50:20.724Z,34.70
2024-04-23T04:52:48.564Z,42.65
2024-04-23T04:55:16.008Z,38.80
2024-04-23T04:57:43.841Z,30.73
2024-04-23T05:00:11.718Z,35.83
2024-04-23T05:02:39.640Z,38.28
2024-04-23T05:05:07.252Z,37.28
2024-04-23T05:07:35.094Z,41.58
2024-04-23T05:10:02.478Z,36.53
2024-04-23T05:12:30.418Z,41.10
2024-04-23T05:14:57.813Z,43.22
2024-04-23T05:17:25.652Z,41.88
2024-04-23T05:19:53.100Z,39.45
2024-04-23T05:22:24.507Z,39.53
2024-04-23T05:24:51.903Z,35.50
2024-04-23T05:27:19.686Z,40.15
2024-04-23T05:29:52.588Z,32.40
2024-04-23T05:32:39.316Z,41.67
2024-04-23T05:35:08.042Z,40.15
2024-04-23T05:37:36.241Z,39.67
2024-04-23T05:40:03.805Z,38.05
2024-04-23T05:42:31.699Z,41.05
2024-04-23T05:44:59.105Z,40.80
2024-04-23T05:47:27.079Z,35.42
2024-04-23T05:50:32.417Z,39.72
2024-04-23T05:53:38.189Z,42.45
2024-04-23T05:56:05.786Z,45.10
2024-04-23T05:58:33.589Z,40.63
2024-04-23T06:01:01.122Z,46.03
2024-04-23T06:03:28.955Z,37.47
2024-04-23T06:05:56.380Z,40.58
2024-04-23T06:08:27.282Z,35.65
2024-04-23T06:10:54.758Z,38.33
2024-04-23T06:13:22.587Z,37.25
2024-04-23T06:15:49.982Z,34.35
2024-04-23T06:18:23.735Z,40.25
2024-04-23T06:20:54.348Z,35.50
2024-04-23T06:23:22.401Z,32.30
2024-04-23T06:25:50.067Z,38.47
2024-04-23T06:28:17.869Z,37.20
2024-04-23T06:30:45.288Z,29.05
2024-04-23T06:33:13.188Z,36.95
2024-04-23T06:35:41.106Z,29.30
2024-04-23T06:38:08.946Z,27.92
2024-04-23T06:40:36.495Z,30.02
2024-04-23T06:43:04.323Z,28.98
2024-04-23T06:45:31.722Z,47.08
2024-04-23T06:48:03.807Z,43.92
2024-04-23T06:50:31.239Z,41.13
2024-04-23T06:53:00.247Z,42.72
2024-04-23T06:55:27.793Z,31.15
2024-04-23T06:57:55.791Z,26.77
2024-04-23T07:00:23.177Z,29.38
2024-04-23T07:02:50.972Z,30.13
2024-04-23T07:05:18.466Z,37.67
2024-04-23T07:07:46.256Z,27.20
2024-04-23T07:10:14.486Z,32.92
2024-04-23T07:12:42.275Z,22.45
2024-04-23T07:15:09.717Z,25.05
2024-04-23T07:17:38.861Z,27.90
2024-04-23T07:20:07.042Z,28.48
2024-04-23T07:22:34.936Z,29.50
2024-04-23T07:25:02.382Z,31.95
2024-04-23T07:27:30.153Z,29.85
2024-04-23T07:29:57.532Z,29.25
2024-04-23T07:32:25.423Z,26.75
2024-04-23T07:34:53.015Z,23.33
2024-04-23T07:37:21.004Z,29.25
2024-04-23T07:39:48.571Z,27.50
2024-04-23T07:42:16.356Z,22.73
2024-04-23T07:44:43.723Z,22.58
2024-04-23T07:47:11.647Z,25.88
2024-04-23T07:49:39.774Z,22.75
2024-04-23T07:52:07.596Z,20.25
2024-04-23T07:54:34.973Z,24.00
2024-04-23T07:57:02.780Z,21.38
2024-04-23T07:59:30.149Z,22.40
2024-04-23T08:01:57.942Z,22.00
2024-04-23T08:04:25.318Z,19.95
2024-04-23T08:06:53.179Z,21.40
2024-04-23T08:09:20.737Z,19.23
2024-04-23T08:11:48.606Z,22.08
2024-04-23T08:14:16.083Z,16.95
2024-04-23T08:16:48.498Z,19.17
2024-04-23T08:19:16.503Z,18.58
2024-04-23T08:21:44.284Z,20.30
2024-04-23T08:24:11.655Z,17.23
2024-04-23T08:26:39.515Z,22.30
2024-04-23T08:29:08.394Z,18.08
2024-04-23T08:31:36.207Z,25.42
2024-04-23T08:34:03.621Z,15.73
2024-04-23T08:36:31.383Z,16.48
2024-04-23T08:38:59.497Z,18.10
2024-04-23T08:41:28.236Z,16.50
2024-04-23T08:44:09.756Z,18.10
2024-04-23T08:46:38.499Z,17.60
2024-04-23T08:49:07.189Z,17.27
2024-04-23T08:51:36.223Z,22.48
2024-04-23T08:54:06.034Z,16.33
2024-04-23T08:56:35.651Z,17.25
2024-04-23T08:59:08.679Z,21.75
2024-04-23T09:01:39.697Z,19.23
2024-04-23T09:04:08.178Z,18.05
2024-04-23T09:06:38.840Z,22.65
2024-04-23T09:09:10.433Z,19.98
2024-04-23T09:11:38.266Z,18.23
2024-04-23T09:14:06.255Z,14.50
2024-04-23T09:16:34.123Z,14.90
2024-04-23T09:19:01.700Z,14.82
2024-04-23T09:21:29.703Z,12.65
2024-04-23T09:24:05.254Z,13.02
2024-04-23T09:26:33.331Z,11.63
2024-04-23T09:29:01.375Z,11.32
2024-04-23T09:31:36.334Z,13.13
2024-04-23T09:34:05.587Z,13.10
2024-04-23T09:36:34.746Z,14.98
2024-04-23T09:39:04.550Z,12.38
2024-04-23T09:41:33.184Z,8.07
2024-04-23T09:44:03.955Z,10.18
2024-04-23T09:46:33.227Z,9.70
2024-04-23T09:49:05.727Z,8.05
2024-04-23T09:51:33.708Z,7.25
2024-04-23T09:54:01.753Z,7.82
2024-04-23T09:56:29.706Z,7.05
2024-04-23T09:58:57.165Z,6.40
2024-04-23T10:01:28.890Z,8.77
2024-04-23T10:04:06.901Z,9.48
2024-04-23T10:06:41.502Z,6.97
2024-04-23T10:09:18.399Z,5.93
2024-04-23T10:11:57.368Z,5.45
2024-04-23T10:14:29.493Z,6.82
2024-04-23T10:17:16.954Z,5.68
2024-04-23T10:19:47.091Z,6.65
2024-04-23T10:22:15.115Z,6.03
2024-04-23T10:24:43.272Z,7.05
2024-04-23T10:27:11.905Z,6.47
2024-04-23T10:29:41.093Z,6.20
2024-04-23T10:32:10.962Z,5.30
2024-04-23T10:34:43.195Z,6.40
2024-04-23T10:37:12.190Z,6.20
2024-04-23T10:39:40.087Z,5.25
2024-04-23T10:42:08.970Z,11.35
2024-04-23T10:44:37.655Z,6.20
2024-04-23T10:47:06.673Z,5.20
2024-04-23T10:49:38.712Z,5.57
2024-04-23T10:52:06.933Z,4.88
2024-04-23T10:54:35.425Z,5.55
2024-04-23T10:57:08.504Z,5.97
2024-04-23T10:59:38.908Z,6.35
2024-04-23T11:02:14.555Z,7.40
2024-04-23T11:04:47.444Z,7.15
2024-04-23T11:07:32.114Z,7.28
2024-04-23T11:10:01.380Z,7.38
2024-04-23T11:12:31.377Z,7.25
2024-04-23T11:14:59.606Z,8.55
2024-04-23T11:17:27.592Z,6.97
2024-04-23T11:19:58.215Z,7.50
2024-04-23T11:22:42.927Z,7.10
2024-04-23T11:25:16.369Z,6.28
2024-04-23T11:27:44.459Z,7.85
2024-04-23T11:30:15.913Z,7.10
2024-04-23T11:32:43.905Z,7.65
2024-04-23T11:35:15.554Z,8.00
2024-04-23T11:37:43.656Z,9.43
2024-04-23T11:40:11.235Z,8.52
2024-04-23T11:42:39.099Z,10.38
2024-04-23T11:45:07.263Z,11.77
2024-04-23T11:47:35.573Z,10.63
2024-04-23T11:50:07.174Z,8.77
2024-04-23T11:52:35.944Z,8.60
2024-04-23T11:55:08.668Z,10.88
2024-04-23T11:57:40.208Z,8.45
2024-04-23T12:00:09.091Z,9.70
2024-04-23T12:02:37.066Z,9.07
2024-04-23T12:05:05.977Z,8.27
2024-04-23T12:07:35.856Z,9.30
2024-04-23T12:10:06.168Z,11.20
2024-04-23T12:12:37.942Z,11.82
2024-04-23T12:15:07.389Z,10.38
2024-04-23T12:17:40.400Z,9.65
2024-04-23T12:20:12.149Z,14.38
2024-04-23T12:22:46.492Z,10.88
2024-04-23T12:25:16.324Z,19.45
2024-04-23T12:27:48.213Z,16.70
2024-04-23T12:30:20.763Z,9.40
2024-04-23T12:32:51.710Z,10.57
2024-04-23T12:35:25.567Z,8.98
2024-04-23T12:38:02.748Z,14.48
2024-04-23T12:40:31.166Z,13.18
2024-04-23T12:42:59.538Z,16.23
2024-04-23T12:45:27.088Z,24.33
2024-04-23T12:47:58.246Z,12.25
2024-04-23T12:50:25.874Z,9.68
2024-04-23T12:52:53.716Z,16.38
2024-04-23T12:55:21.418Z,12.88
2024-04-23T12:57:49.209Z,17.08
2024-04-23T13:00:16.841Z,18.80
2024-04-23T13:02:44.709Z,8.95
2024-04-23T13:05:12.420Z,10.68
2024-04-23T13:07:40.306Z,9.98
2024-04-23T13:10:08.170Z,7.50
2024-04-23T13:12:35.999Z,24.95
2024-04-23T13:15:03.467Z,13.98
2024-04-23T13:17:31.506Z,11.68
2024-04-23T13:20:01.306Z,11.55
2024-04-23T13:22:30.004Z,15.77
2024-04-23T13:24:57.384Z,14.27
2024-04-23T13:27:25.127Z,13.27
2024-04-23T13:29:52.497Z,19.23
2024-04-23T13:32:20.529Z,13.88
2024-04-23T13:34:47.981Z,10.32
2024-04-23T13:37:16.098Z,12.43
2024-04-23T13:39:43.520Z,8.50
2024-04-23T13:42:11.239Z,8.65
2024-04-23T13:44:38.800Z,7.72
2024-04-23T13:47:08.343Z,7.55
2024-04-23T13:49:36.958Z,10.05
2024-04-23T13:52:05.083Z,11.65
2024-04-23T13:54:32.468Z,10.32
2024-04-23T13:56:59.931Z,7.50
2024-04-23T13:59:27.990Z,7.70
2024-04-23T14:01:55.590Z,7.32
2024-04-23T14:04:24.991Z,11.00
2024-04-23T14:06:54.874Z,8.60
2024-04-23T14:09:22.677Z,7.40
2024-04-23T14:11:50.271Z,6.85
2024-04-23T14:14:18.227Z,10.00
2024-04-23T14:16:45.700Z,8.50
2024-04-23T14:19:13.600Z,7.93
2024-04-23T14:21:42.290Z,7.43
2024-04-23T14:24:10.143Z,8.43
2024-04-23T14:26:37.588Z,9.25
2024-04-23T14:29:05.648Z,8.52
2024-04-23T14:31:36.271Z,8.13
2024-04-23T14:34:07.048Z,8.18
2024-04-23T14:36:35.083Z,7.28
2024-04-23T14:39:02.906Z,10.85
2024-04-23T14:41:30.407Z,6.53
2024-04-23T14:43:58.233Z,8.60
2024-04-23T14:46:25.627Z,9.15
2024-04-23T14:48:53.474Z,10.63
2024-04-23T14:51:22.020Z,9.85
2024-04-23T14:53:53.396Z,10.10
2024-04-23T14:56:21.270Z,9.95
2024-04-23T14:58:52.607Z,9.15
2024-04-23T15:01:20.211Z,9.43
2024-04-23T15:03:48.075Z,12.38
2024-04-23T15:06:16.163Z,8.05
2024-04-23T15:08:44.345Z,9.55
2024-04-23T15:11:12.003Z,8.75
2024-04-23T15:13:39.956Z,8.95
2024-04-23T15:16:09.460Z,7.90
2024-04-23T15:18:42.321Z,10.52
2024-04-23T15:21:11.954Z,8.70
2024-04-23T15:23:39.976Z,8.40
2024-04-23T15:26:07.815Z,11.73
2024-04-23T15:28:42.303Z,15.98
2024-04-23T15:31:10.576Z,10.57
2024-04-23T15:33:40.519Z,9.93
2024-04-23T15:36:16.911Z,8.50
2024-04-23T15:38:56.398Z,8.60
2024-04-23T15:41:23.885Z,9.65
2024-04-23T15:43:52.237Z,8.30
2024-04-23T15:46:19.870Z,11.23
2024-04-23T15:48:47.963Z,9.98
2024-04-23T15:51:15.486Z,11.88
2024-04-23T15:53:43.303Z,10.80
2024-04-23T15:56:12.732Z,9.77
2024-04-23T15:58:40.991Z,9.02
2024-04-23T16:01:10.575Z,9.43
2024-04-23T16:03:40.350Z,10.98
2024-04-23T16:06:14.036Z,10.40
2024-04-23T16:08:41.864Z,13.38
2024-04-23T16:11:10.840Z,15.68
2024-04-23T16:13:39.769Z,10.85
2024-04-23T16:16:07.469Z,10.90
2024-04-23T16:18:38.363Z,10.80
2024-04-23T16:21:12.606Z,10.05
2024-04-23T16:23:40.790Z,9.45
2024-04-23T16:26:08.906Z,13.23
2024-04-23T16:28:37.560Z,13.13
2024-04-23T16:31:06.527Z,13.05
2024-04-23T16:33:39.237Z,12.65
2024-04-23T16:36:08.475Z,12.52
2024-04-23T16:38:39.880Z,10.07
2024-04-23T16:41:11.218Z,9.75
2024-04-23T16:43:39.243Z,11.35
2024-04-23T16:46:07.613Z,10.32
2024-04-23T16:48:36.502Z,12.45
2024-04-23T16:51:05.759Z,11.32
2024-04-23T16:53:34.482Z,12.50
2024-04-23T16:56:02.083Z,11.90
2024-04-23T16:58:30.073Z,12.25
2024-04-23T17:00:57.679Z,13.05
2024-04-23T17:03:25.675Z,10.70
2024-04-23T17:05:55.291Z,10.82
2024-04-23T17:08:23.182Z,14.20
2024-04-23T17:10:50.720Z,12.90
2024-04-23T17:13:21.853Z,14.30
2024-04-23T17:15:49.198Z,13.25
2024-04-23T17:18:17.269Z,11.65
2024-04-23T17:20:44.743Z,13.05
2024-04-23T17:23:12.633Z,15.43
2024-04-23T17:25:40.411Z,14.68
2024-04-23T17:28:08.590Z,13.68
2024-04-23T17:30:36.149Z,14.98
2024-04-23T17:33:03.978Z,12.68
2024-04-23T17:35:31.990Z,13.60
2024-04-23T17:37:59.598Z,15.20
2024-04-23T17:40:27.699Z,14.82
2024-04-23T17:42:55.076Z,13.27
2024-04-23T17:45:22.822Z,15.32
2024-04-23T17:47:50.401Z,15.60
2024-04-23T17:50:18.295Z,14.90
2024-04-23T17:52:47.546Z,14.35
2024-04-23T17:55:16.040Z,11.85
2024-04-23T17:57:43.402Z,13.10
2024-04-23T18:00:12.239Z,15.82
2024-04-23T18:02:39.819Z,10.85
2024-04-23T18:05:09.662Z,13.57
2024-04-23T18:07:37.187Z,14.68
2024-04-23T18:10:05.894Z,14.95
2024-04-23T18:12:33.354Z,13.75
2024-04-23T18:15:01.212Z,12.73
2024-04-23T18:17:31.166Z,14.63
2024-04-23T18:19:59.433Z,12.25
2024-04-23T18:22:26.789Z,13.80
2024-04-23T18:24:54.636Z,12.30
2024-04-23T18:27:23.186Z,12.20
2024-04-23T18:29:51.003Z,12.18
2024-04-23T18:32:18.391Z,11.82
2024-04-23T18:34:46.335Z,15.82
2024-04-23T18:37:13.923Z,13.93
2024-04-23T18:39:41.740Z,12.25
2024-04-23T18:42:09.300Z,13.07
2024-04-23T18:44:37.268Z,13.02
2024-04-23T18:47:04.984Z,11.48
2024-04-23T18:49:32.951Z,10.82
2024-04-23T18:52:00.682Z,12.35
2024-04-23T18:54:28.568Z,17.20
2024-04-23T18:56:56.332Z,16.17
2024-04-23T18:59:24.273Z,13.57
2024-04-23T19:01:51.770Z,17.05
2024-04-23T19:04:19.667Z,14.07
2024-04-23T19:06:47.295Z,18.92
2024-04-23T19:09:15.127Z,16.33
2024-04-23T19:11:42.817Z,17.90
2024-04-23T19:14:16.272Z,14.10
2024-04-23T19:16:45.426Z,16.55
2024-04-23T19:19:14.869Z,19.52
2024-04-23T19:21:42.230Z,17.17
2024-04-23T19:24:10.322Z,16.67
2024-04-23T19:26:38.722Z,18.98
2024-04-23T19:29:06.600Z,17.55
2024-04-23T19:31:34.253Z,19.88
2024-04-23T19:34:02.530Z,20.45
2024-04-23T19:36:30.515Z,21.63
2024-04-23T19:38:58.399Z,22.17
2024-04-23T19:41:25.939Z,19.50
2024-04-23T19:43:54.623Z,22.85
2024-04-23T19:46:27.030Z,21.23
2024-04-23T19:48:57.717Z,19.67
2024-04-23T19:51:25.382Z,22.52
2024-04-23T19:53:53.184Z,19.63
2024-04-23T19:56:37.467Z,20.10
2024-04-23T19:59:08.939Z,25.17
2024-04-23T20:01:39.986Z,21.83
2024-04-23T20:04:08.388Z,21.15
2024-04-23T20:06:36.406Z,20.23
2024-04-23T20:09:05.051Z,22.52
2024-04-23T20:11:33.158Z,19.45
2024-04-23T20:14:01.088Z,18.10
2024-04-23T20:16:28.599Z,20.35
2024-04-23T20:18:56.585Z,23.55
2024-04-23T20:21:24.150Z,21.25
2024-04-23T20:23:56.302Z,23.05
2024-04-23T20:26:25.142Z,22.23
2024-04-23T20:28:54.266Z,20.35
2024-04-23T20:31:22.821Z,24.38
2024-04-23T20:33:50.887Z,24.10
2024-04-23T20:36:18.505Z,22.08
2024-04-23T20:38:46.512Z,24.08
2024-04-23T20:41:17.065Z,24.27
2024-04-23T20:43:45.236Z,20.42
2024-04-23T20:46:12.669Z,23.58
2024-04-23T20:48:40.595Z,25.48
2024-04-23T20:51:08.059Z,22.63
2024-04-23T20:53:36.083Z,24.83
2024-04-23T20:56:07.399Z,27.98
2024-04-23T20:58:35.882Z,27.23
2024-04-23T21:01:10.727Z,30.40
2024-04-23T21:03:39.365Z,29.15
2024-04-23T21:06:11.296Z,26.08
2024-04-23T21:08:40.393Z,30.70
2024-04-23T21:11:17.933Z,28.52
2024-04-23T21:13:46.577Z,32.92
2024-04-23T21:16:15.563Z,36.28
2024-04-23T21:18:45.553Z,37.70
2024-04-23T21:21:14.255Z,38.60
2024-04-23T21:23:42.682Z,32.80
2024-04-23T21:26:10.382Z,29.70
2024-04-23T21:28:38.353Z,28.58
2024-04-23T21:31:05.885Z,30.65
2024-04-23T21:33:34.220Z,31.38
2024-04-23T21:36:06.156Z,31.40
2024-04-23T21:38:35.258Z,32.80
2024-04-23T21:41:10.096Z,30.15
2024-04-23T21:43:39.264Z,33.22
2024-04-23T21:46:11.493Z,29.73
2024-04-23T21:48:39.492Z,33.22
2024-04-23T21:51:12.316Z,32.72
2024-04-23T21:53:40.734Z,36.15
2024-04-23T21:56:09.308Z,30.58
2024-04-23T21:58:38.973Z,30.25
2024-04-23T22:01:19.598Z,31.52
2024-04-23T22:03:48.754Z,25.52
2024-04-23T22:06:16.404Z,26.30
2024-04-23T22:08:44.491Z,30.73
2024-04-23T22:11:12.914Z,35.80
2024-04-23T22:13:42.094Z,35.20
2024-04-23T22:16:10.143Z,34.90
2024-04-23T22:18:38.136Z,31.20
2024-04-23T22:21:05.904Z,39.97
2024-04-23T22:23:33.709Z,32.53
2024-04-23T22:26:05.491Z,33.33
2024-04-23T22:28:33.343Z,28.98
2024-04-23T22:31:04.910Z,35.33
2024-04-23T22:33:36.160Z,36.13
2024-04-23T22:36:05.815Z,36.90
2024-04-23T22:38:33.616Z,39.63
2024-04-23T22:41:01.263Z,39.65
2024-04-23T22:43:29.088Z,36.97
2024-04-23T22:45:56.536Z,40.13
2024-04-23T22:48:24.400Z,40.97
2024-04-23T22:50:51.850Z,33.13
2024-04-23T22:53:19.647Z,44.67
2024-04-23T22:55:47.269Z,57.78
2024-04-23T22:58:15.358Z,48.38
2024-04-23T23:00:42.860Z,46.45
2024-04-23T23:03:10.858Z,42.60
2024-04-23T23:05:38.348Z,42.00
2024-04-23T23:08:06.316Z,44.35
2024-04-23T23:10:33.788Z,44.42
2024-04-23T23:13:01.716Z,34.33
2024-04-23T23:15:29.425Z,30.85
2024-04-23T23:17:57.459Z,28.83
2024-04-23T23:20:24.894Z,32.88
2024-04-23T23:22:52.698Z,30.27
2024-04-23T23:25:20.190Z,28.17
2024-04-23T23:27:48.102Z,26.92
2024-04-23T23:30:15.453Z,27.83
2024-04-23T23:32:43.428Z,28.48
2024-04-23T23:35:10.901Z,31.77
2024-04-23T23:37:38.774Z,45.88
2024-04-23T23:40:07.776Z,48.65
2024-04-23T23:42:35.646Z,39.17
2024-04-23T23:45:03.053Z,38.50
2024-04-23T23:47:31.112Z,34.45
2024-04-23T23:49:58.564Z,28.98
2024-04-23T23:52:26.467Z,31.83
2024-04-23T23:54:53.909Z,32.13
2024-04-23T23:57:21.818Z,29.60
2024-04-23T23:59:49.252Z,24.42
